Time;durP1;ratioP1;P1;durP2;ratioP2;P2;SDS_P1;SDS_P2;PMS_P1;PMS_P2;Temp;Humidity;BMP_temperature;BMP_pressure;BME280_temperature;BME280_humidity;BME280_pressure;Samples;Min_cycle;Max_cycle;Signal;HPM_P1;HPM_P2
2023/12/20 00:00:45;;;;;;;14.90;14.50;;;20.90;54.20;;;;;;4975218;28;20965;-73
2023/12/20 00:03:12;;;;;;;14.90;14.40;;;20.90;54.10;;;;;;4975506;28;20959;-73
2023/12/20 00:05:41;;;;;;;16.73;16.33;;;20.90;54.10;;;;;;4975295;28;20515;-72
2023/12/20 00:08:08;;;;;;;17.90;17.40;;;20.90;54.10;;;;;;4974635;28;20452;-73
2023/12/20 00:10:34;;;;;;;16.87;16.40;;;20.90;54.20;;;;;;4975010;28;20986;-72
2023/12/20 00:13:01;;;;;;;16.20;15.70;;;20.80;54.10;;;;;;4975226;28;20472;-72
2023/12/20 00:15:28;;;;;;;16.13;15.73;;;20.90;54.10;;;;;;4975205;28;20496;-73
2023/12/20 00:17:55;;;;;;;17.40;16.90;;;20.90;54.20;;;;;;4974289;28;20440;-73
2023/12/20 00:20:22;;;;;;;17.00;16.50;;;20.90;54.20;;;;;;4974916;28;20461;-73
2023/12/20 00:22:50;;;;;;;16.20;15.80;;;20.80;54.10;;;;;;4975005;28;20490;-72
2023/12/20 00:25:17;;;;;;;16.17;15.77;;;20.80;54.10;;;;;;4974871;28;20526;-73
2023/12/20 00:27:44;;;;;;;17.53;17.03;;;20.80;54.20;;;;;;4974819;28;20447;-73
2023/12/20 00:30:12;;;;;;;16.80;16.40;;;20.80;54.20;;;;;;4974175;28;20480;-73
2023/12/20 00:32:39;;;;;;;16.80;16.30;;;20.80;54.20;;;;;;4974741;28;20476;-73
2023/12/20 00:35:06;;;;;;;16.40;15.90;;;20.80;54.20;;;;;;4974808;28;20491;-73
2023/12/20 00:37:33;;;;;;;16.70;16.17;;;20.70;54.10;;;;;;4974535;28;20515;-72
2023/12/20 00:40:01;;;;;;;13.90;13.57;;;20.70;54.20;;;;;;4974034;28;20472;-73
2023/12/20 00:42:28;;;;;;;13.70;13.30;;;20.70;54.20;;;;;;4974951;28;20873;-74
2023/12/20 00:44:55;;;;;;;13.20;12.90;;;20.70;54.20;;;;;;4974373;28;20918;-73
2023/12/20 00:47:23;;;;;;;13.30;13.00;;;20.70;54.20;;;;;;4974510;28;20538;-73
2023/12/20 00:49:49;;;;;;;13.10;12.80;;;20.70;54.20;;;;;;4973707;28;20436;-72
2023/12/20 00:52:17;;;;;;;14.20;13.80;;;20.70;54.20;;;;;;4974226;28;20471;-73
2023/12/20 00:54:44;;;;;;;13.40;13.00;;;20.70;54.20;;;;;;4974121;28;21070;-73
2023/12/20 00:57:12;;;;;;;13.60;13.20;;;20.60;54.20;;;;;;4974416;28;20474;-73
2023/12/20 00:59:39;;;;;;;18.07;17.47;;;20.60;54.20;;;;;;4973823;28;20484;-73
2023/12/20 01:02:06;;;;;;;16.80;16.40;;;20.60;54.20;;;;;;4974880;28;20476;-72
2023/12/20 01:04:33;;;;;;;16.07;15.67;;;20.60;54.20;;;;;;4974160;28;20502;-73
2023/12/20 01:06:59;;;;;;;15.60;15.20;;;20.60;54.20;;;;;;4966067;28;21186;-72
2023/12/20 01:09:27;;;;;;;15.50;15.10;;;20.60;54.20;;;;;;4973526;28;20440;-72
2023/12/20 01:11:54;;;;;;;13.73;13.33;;;20.60;54.20;;;;;;4973956;28;20454;-72
2023/12/20 01:14:21;;;;;;;14.37;13.87;;;20.60;54.20;;;;;;4973966;28;20495;-72
2023/12/20 01:16:48;;;;;;;13.83;13.43;;;20.60;54.10;;;;;;4973751;28;20936;-72
2023/12/20 01:19:16;;;;;;;13.90;13.43;;;20.60;54.20;;;;;;4973322;28;20623;-73
2023/12/20 01:21:43;;;;;;;13.70;13.30;;;20.50;54.10;;;;;;4973782;28;20827;-73
2023/12/20 01:24:10;;;;;;;14.30;13.90;;;20.60;54.10;;;;;;4973559;28;20452;-73
2023/12/20 01:26:36;;;;;;;13.70;13.30;;;20.50;54.10;;;;;;4973556;28;20510;-72
2023/12/20 01:29:03;;;;;;;14.27;13.87;;;20.50;54.10;;;;;;4973191;28;20472;-71
2023/12/20 01:31:32;;;;;;;14.50;14.00;;;20.50;54.10;;;;;;4973695;28;20479;-73
2023/12/20 01:33:58;;;;;;;13.63;13.33;;;20.50;54.00;;;;;;4973554;28;20511;-73
2023/12/20 01:36:25;;;;;;;14.20;13.50;;;20.50;54.00;;;;;;4973561;28;20529;-73
2023/12/20 01:38:52;;;;;;;13.53;13.13;;;20.50;54.00;;;;;;4972787;28;20487;-73
2023/12/20 01:41:19;;;;;;;13.50;13.20;;;20.50;54.00;;;;;;4973867;28;20479;-73
2023/12/20 01:43:46;;;;;;;13.50;13.10;;;20.50;54.00;;;;;;4973379;28;20509;-73
2023/12/20 01:46:13;;;;;;;13.33;12.97;;;20.50;54.00;;;;;;4973346;28;20511;-73
2023/12/20 01:48:42;;;;;;;13.90;13.50;;;20.40;54.00;;;;;;4972711;28;20483;-73
2023/12/20 01:51:09;;;;;;;13.20;12.90;;;20.40;54.00;;;;;;4973211;28;20483;-72
2023/12/20 01:53:36;;;;;;;13.40;13.10;;;20.40;54.00;;;;;;4973269;28;20491;-71
2023/12/20 01:56:03;;;;;;;13.80;13.30;;;20.40;54.00;;;;;;4965435;28;20487;-71
2023/12/20 01:58:30;;;;;;;13.40;13.10;;;20.40;54.00;;;;;;4972830;28;20867;-71
2023/12/20 02:00:58;;;;;;;14.37;13.97;;;20.40;54.00;;;;;;4973252;28;20471;-73
2023/12/20 02:03:26;;;;;;;13.80;13.40;;;20.40;53.90;;;;;;4973177;28;20479;-72
2023/12/20 02:05:54;;;;;;;13.17;12.77;;;20.40;53.90;;;;;;4973061;28;20567;-73
2023/12/20 02:08:21;;;;;;;14.47;13.63;;;20.30;53.80;;;;;;4972577;28;20494;-72
2023/12/20 02:10:48;;;;;;;13.53;13.13;;;20.30;53.80;;;;;;4972985;28;20476;-72
2023/12/20 02:13:15;;;;;;;13.47;13.13;;;20.30;53.80;;;;;;4973035;28;20464;-72
2023/12/20 02:15:43;;;;;;;13.20;12.80;;;20.30;53.80;;;;;;4972905;28;20496;-72
2023/12/20 02:18:10;;;;;;;14.23;13.83;;;20.30;53.80;;;;;;4972659;28;20448;-72
2023/12/20 02:20:37;;;;;;;13.97;13.57;;;20.30;53.80;;;;;;4972926;28;20471;-72
2023/12/20 02:23:05;;;;;;;14.17;13.77;;;20.30;53.90;;;;;;4966174;28;20472;-72
2023/12/20 02:25:32;;;;;;;12.93;12.63;;;20.30;53.80;;;;;;4972714;28;20522;-72
2023/12/20 02:27:59;;;;;;;13.60;13.20;;;20.30;53.80;;;;;;4972272;28;20468;-72
2023/12/20 02:30:26;;;;;;;13.87;13.47;;;20.30;53.80;;;;;;4972759;28;20475;-72
2023/12/20 02:32:54;;;;;;;14.00;13.70;;;20.30;53.90;;;;;;4972729;28;20482;-72
2023/12/20 02:35:21;;;;;;;14.40;14.00;;;20.30;53.90;;;;;;4972842;28;20510;-72
2023/12/20 02:37:48;;;;;;;13.73;13.37;;;20.30;53.90;;;;;;4972129;28;20483;-72
2023/12/20 02:40:16;;;;;;;14.70;14.20;;;20.20;53.80;;;;;;4972705;28;20486;-72
2023/12/20 02:42:43;;;;;;;13.80;13.50;;;20.20;53.80;;;;;;4972555;28;20456;-72
2023/12/20 02:45:10;;;;;;;13.70;13.40;;;20.20;53.90;;;;;;4972703;28;20510;-72
2023/12/20 02:47:37;;;;;;;12.67;12.37;;;20.20;53.90;;;;;;4972080;28;20484;-72
2023/12/20 02:50:03;;;;;;;13.57;13.17;;;20.20;53.90;;;;;;4972625;28;20481;-72
2023/12/20 02:52:30;;;;;;;13.07;12.73;;;20.20;53.90;;;;;;4972814;28;20879;-72
2023/12/20 02:54:57;;;;;;;14.60;14.20;;;20.20;53.90;;;;;;4972605;28;20504;-72
2023/12/20 02:57:25;;;;;;;12.80;12.50;;;20.10;53.80;;;;;;4972027;28;20479;-72
2023/12/20 02:59:52;;;;;;;12.40;12.10;;;20.10;53.80;;;;;;4972390;28;20476;-72
2023/12/20 03:02:19;;;;;;;12.93;12.63;;;20.10;53.80;;;;;;4974672;28;20451;-73
2023/12/20 03:04:46;;;;;;;13.50;13.20;;;20.10;53.80;;;;;;4976340;28;20519;-72
2023/12/20 03:07:13;;;;;;;13.70;13.40;;;20.10;53.80;;;;;;4975683;28;20586;-72
2023/12/20 03:09:40;;;;;;;12.93;12.60;;;20.10;53.90;;;;;;4976206;28;20488;-72
2023/12/20 03:12:07;;;;;;;13.17;12.87;;;20.10;53.80;;;;;;4976324;28;20817;-72
2023/12/20 03:14:35;;;;;;;13.00;12.60;;;20.10;53.80;;;;;;4975819;28;20495;-72
2023/12/20 03:17:02;;;;;;;13.73;13.33;;;20.10;53.80;;;;;;4976198;28;20464;-72
2023/12/20 03:19:29;;;;;;;13.20;12.90;;;20.10;53.80;;;;;;4976179;28;20924;-72
2023/12/20 03:21:56;;;;;;;13.77;13.47;;;20.10;53.80;;;;;;4975868;28;20980;-72
2023/12/20 03:24:22;;;;;;;13.20;12.90;;;20.10;53.80;;;;;;4975212;28;20503;-72
2023/12/20 03:26:49;;;;;;;13.60;13.30;;;20.10;53.80;;;;;;4976243;28;20538;-72
2023/12/20 03:29:16;;;;;;;13.93;13.53;;;20.10;53.80;;;;;;4976252;28;20475;-72
2023/12/20 03:31:45;;;;;;;13.60;13.30;;;20.00;53.80;;;;;;4975771;28;20448;-72
2023/12/20 03:34:12;;;;;;;13.50;13.20;;;20.00;53.70;;;;;;4975451;28;20443;-72
2023/12/20 03:36:39;;;;;;;14.00;13.50;;;20.10;53.80;;;;;;4975778;28;20472;-72
2023/12/20 03:39:06;;;;;;;13.23;12.83;;;20.00;53.70;;;;;;4975815;28;20451;-72
2023/12/20 03:41:33;;;;;;;13.70;13.30;;;20.00;53.70;;;;;;4975760;28;20486;-72
2023/12/20 03:44:00;;;;;;;13.77;13.30;;;20.00;53.70;;;;;;4967997;28;20990;-72
2023/12/20 03:46:26;;;;;;;13.33;12.93;;;20.00;53.70;;;;;;4975693;28;20648;-73
2023/12/20 03:48:55;;;;;;;13.13;12.70;;;20.00;53.70;;;;;;4975518;28;20451;-72
2023/12/20 03:51:22;;;;;;;13.97;13.60;;;20.00;53.70;;;;;;4975679;28;20879;-72
2023/12/20 03:53:49;;;;;;;13.70;13.20;;;20.00;53.70;;;;;;4975109;28;20491;-71
2023/12/20 03:56:16;;;;;;;12.13;11.83;;;20.00;53.70;;;;;;4975420;28;20460;-72
2023/12/20 03:58:42;;;;;;;13.73;13.23;;;19.90;53.60;;;;;;4975371;28;20476;-72
2023/12/20 04:01:12;;;;;;;13.60;13.20;;;19.90;53.60;;;;;;4974855;28;20478;-71
2023/12/20 04:03:39;;;;;;;14.00;13.63;;;19.90;53.60;;;;;;4975482;28;20455;-72
2023/12/20 04:06:07;;;;;;;14.10;13.73;;;19.90;53.60;;;;;;4974995;28;20836;-72
2023/12/20 04:08:34;;;;;;;14.07;13.67;;;19.90;53.60;;;;;;4975335;28;20852;-71
2023/12/20 04:11:01;;;;;;;14.53;14.13;;;19.90;53.60;;;;;;4974622;28;20440;-72
2023/12/20 04:13:28;;;;;;;13.53;13.23;;;19.90;53.60;;;;;;4974273;28;20487;-72
2023/12/20 04:15:55;;;;;;;15.10;14.70;;;19.90;53.60;;;;;;4974929;28;20504;-72
2023/12/20 04:18:21;;;;;;;15.60;15.20;;;19.90;53.60;;;;;;4975132;28;20960;-72
2023/12/20 04:20:49;;;;;;;14.60;14.20;;;19.90;53.60;;;;;;4974419;28;20971;-72
2023/12/20 04:23:17;;;;;;;15.50;15.10;;;19.90;53.50;;;;;;4974936;28;20450;-71
2023/12/20 04:25:44;;;;;;;15.10;14.70;;;19.90;53.50;;;;;;4974095;28;20495;-72
2023/12/20 04:28:11;;;;;;;14.27;13.87;;;19.90;53.50;;;;;;4974819;28;20507;-72
2023/12/20 04:30:38;;;;;;;15.43;15.03;;;19.90;53.50;;;;;;4974439;28;20956;-71
2023/12/20 04:33:05;;;;;;;15.40;14.90;;;19.90;53.50;;;;;;4974752;28;20471;-72
2023/12/20 04:35:32;;;;;;;14.93;14.53;;;19.80;53.40;;;;;;4974612;28;20491;-72
2023/12/20 04:37:59;;;;;;;15.07;14.57;;;19.80;53.40;;;;;;4974726;28;20472;-72
2023/12/20 04:40:27;;;;;;;14.50;14.10;;;19.80;53.40;;;;;;4974137;28;20484;-72
2023/12/20 04:42:54;;;;;;;14.63;14.10;;;19.80;53.40;;;;;;4974505;28;20479;-73
2023/12/20 04:45:21;;;;;;;13.90;13.60;;;19.80;53.40;;;;;;4974519;28;20494;-72
2023/12/20 04:47:47;;;;;;;16.20;15.60;;;19.80;53.40;;;;;;4974392;28;20513;-73
2023/12/20 04:50:15;;;;;;;14.97;14.40;;;19.80;53.40;;;;;;4973873;28;20444;-72
2023/12/20 04:52:42;;;;;;;14.60;14.20;;;19.80;53.40;;;;;;4973921;28;20455;-72
2023/12/20 04:55:09;;;;;;;14.30;13.90;;;19.80;53.40;;;;;;4974378;28;20467;-72
2023/12/20 04:57:37;;;;;;;14.73;14.20;;;19.80;53.40;;;;;;4974306;28;20450;-72
2023/12/20 05:00:08;;;;;;;15.00;14.60;;;19.80;53.40;;;;;;4973647;28;20878;-72
2023/12/20 05:02:35;;;;;;;14.73;14.43;;;19.70;53.30;;;;;;4974222;28;21022;-72
2023/12/20 05:05:02;;;;;;;16.20;15.80;;;19.70;53.30;;;;;;4974026;28;20503;-72
2023/12/20 05:07:29;;;;;;;15.87;15.37;;;19.80;53.50;;;;;;4974129;28;20507;-72
2023/12/20 05:09:55;;;;;;;16.37;15.87;;;19.70;53.40;;;;;;4973450;28;20940;-72
2023/12/20 05:12:22;;;;;;;17.83;17.23;;;19.70;53.40;;;;;;4973950;28;20936;-73
2023/12/20 05:14:52;;;;;;;15.80;15.40;;;19.70;53.40;;;;;;4974030;28;20901;-73
2023/12/20 05:17:20;;;;;;;16.67;16.27;;;19.80;53.50;;;;;;4973944;28;20463;-71
2023/12/20 05:19:47;;;;;;;15.60;15.10;;;19.80;53.60;;;;;;4973116;28;20536;-73
2023/12/20 05:22:14;;;;;;;15.23;14.83;;;19.70;53.50;;;;;;4973847;28;20548;-73
2023/12/20 05:24:41;;;;;;;17.10;16.30;;;19.70;53.50;;;;;;4972962;28;20561;-73
2023/12/20 05:27:08;;;;;;;15.40;15.00;;;19.70;53.60;;;;;;4973748;28;21010;-73
2023/12/20 05:29:34;;;;;;;16.83;16.33;;;19.70;53.70;;;;;;4973225;28;20906;-73
2023/12/20 05:32:04;;;;;;;15.77;15.10;;;19.70;53.80;;;;;;4973671;28;20542;-73
2023/12/20 05:34:31;;;;;;;16.60;16.10;;;19.70;53.90;;;;;;4973636;28;21002;-72
2023/12/20 05:36:59;;;;;;;16.07;15.67;;;19.80;54.10;;;;;;4973654;28;20483;-72
2023/12/20 05:39:26;;;;;;;15.30;14.90;;;19.70;54.00;;;;;;4972930;28;20475;-72
2023/12/20 05:41:53;;;;;;;15.27;14.87;;;19.70;54.00;;;;;;4973363;28;20487;-72
2023/12/20 05:44:19;;;;;;;17.10;16.50;;;19.70;54.10;;;;;;4973477;28;20487;-73
2023/12/20 05:46:46;;;;;;;18.20;17.70;;;19.70;54.10;;;;;;4973364;28;20511;-73
2023/12/20 05:49:15;;;;;;;17.17;16.67;;;19.70;54.10;;;;;;4968508;28;20471;-72
2023/12/20 05:51:41;;;;;;;16.57;16.10;;;19.70;54.20;;;;;;4973397;28;20487;-73
2023/12/20 05:54:10;;;;;;;19.23;18.63;;;19.70;54.30;;;;;;4973598;28;20475;-73
2023/12/20 05:56:37;;;;;;;20.50;19.90;;;19.70;54.30;;;;;;4973620;28;20480;-72
2023/12/20 05:59:04;;;;;;;20.03;19.43;;;19.70;54.40;;;;;;4972531;28;20468;-72
2023/12/20 06:01:31;;;;;;;19.50;18.97;;;19.70;54.40;;;;;;4973251;28;20456;-73
2023/12/20 06:03:58;;;;;;;23.47;22.77;;;19.60;54.30;;;;;;4973128;28;20479;-72
2023/12/20 06:06:26;;;;;;;18.40;17.90;;;19.70;54.50;;;;;;4972970;28;20866;-73
2023/12/20 06:08:53;;;;;;;18.73;18.13;;;19.60;54.40;;;;;;4970518;28;20479;-73
2023/12/20 06:11:20;;;;;;;17.43;16.93;;;19.60;54.50;;;;;;4973054;28;20857;-72
2023/12/20 06:13:47;;;;;;;17.70;17.00;;;19.60;54.50;;;;;;4973083;28;20451;-72
2023/12/20 06:16:14;;;;;;;19.20;18.70;;;19.60;54.50;;;;;;4972853;28;20495;-72
2023/12/20 06:18:41;;;;;;;17.40;16.90;;;19.60;54.60;;;;;;4972301;28;20474;-72
2023/12/20 06:21:08;;;;;;;17.50;17.00;;;19.60;54.60;;;;;;4972724;28;20468;-73
2023/12/20 06:23:36;;;;;;;17.23;16.63;;;19.60;54.60;;;;;;4973001;28;20871;-73
2023/12/20 06:26:03;;;;;;;16.17;15.67;;;19.60;54.60;;;;;;4997591;23;20498;-71
2023/12/20 06:28:30;;;;;;;15.07;14.67;;;19.60;54.60;;;;;;4991612;28;20890;-71
2023/12/20 06:30:57;;;;;;;14.50;13.97;;;19.60;54.70;;;;;;4992180;28;20512;-71
2023/12/20 06:33:24;;;;;;;14.53;14.13;;;19.60;54.80;;;;;;4992393;28;20475;-71
2023/12/20 06:35:51;;;;;;;14.63;14.23;;;19.60;54.80;;;;;;4991757;28;20549;-72
2023/12/20 06:38:20;;;;;;;14.80;14.40;;;19.60;54.80;;;;;;4992186;28;20470;-70
2023/12/20 06:40:48;;;;;;;14.50;14.10;;;19.60;54.80;;;;;;4992159;28;20450;-70
2023/12/20 06:43:15;;;;;;;15.00;14.60;;;19.60;54.90;;;;;;4992352;28;21028;-71
2023/12/20 06:45:42;;;;;;;15.53;15.10;;;19.60;54.90;;;;;;4991879;28;20521;-70
2023/12/20 06:48:11;;;;;;;15.77;15.27;;;19.50;54.80;;;;;;4991942;28;20537;-71
2023/12/20 06:50:39;;;;;;;16.37;15.87;;;19.50;54.80;;;;;;4992215;28;20810;-71
2023/12/20 06:53:06;;;;;;;16.27;15.83;;;19.50;54.80;;;;;;4991997;28;20538;-71
2023/12/20 06:55:34;;;;;;;15.70;15.30;;;19.50;54.80;;;;;;4991791;28;20466;-71
2023/12/20 06:58:02;;;;;;;14.50;14.10;;;19.50;54.90;;;;;;4991908;28;20956;-70
2023/12/20 07:00:29;;;;;;;16.70;16.20;;;19.50;54.90;;;;;;4992080;28;20471;-71
2023/12/20 07:02:56;;;;;;;16.33;15.93;;;19.50;55.00;;;;;;4991897;28;20477;-71
2023/12/20 07:05:23;;;;;;;15.37;14.87;;;19.50;55.10;;;;;;4987894;28;20506;-71
2023/12/20 07:07:50;;;;;;;17.53;17.03;;;19.50;55.20;;;;;;4989081;28;20512;-69
2023/12/20 07:10:17;;;;;;;17.03;16.43;;;19.50;55.70;;;;;;4992700;28;20475;-68
2023/12/20 07:12:44;;;;;;;17.60;17.00;;;19.60;55.80;;;;;;4992351;28;20497;-72
2023/12/20 07:15:12;;;;;;;18.15;17.17;;;19.70;56.20;;;;;;4991608;28;20438;-68
2023/12/20 07:17:39;;;;;;;18.10;17.53;;;19.80;56.30;;;;;;4980655;28;20616;-68
2023/12/20 07:20:10;;;;;;;13.75;13.25;;;19.80;56.50;;;;;;4982517;28;20477;-68
2023/12/20 07:22:37;;;;;;;16.63;16.00;;;19.90;57.40;;;;;;4992205;28;20208;-69
2023/12/20 07:25:05;;;;;;;17.27;16.77;;;20.00;57.60;;;;;;4991489;28;20506;-70
2023/12/20 07:27:32;;;;;;;17.40;16.90;;;20.10;57.80;;;;;;4991970;28;20510;-70
2023/12/20 07:29:59;;;;;;;17.63;17.13;;;20.10;57.20;;;;;;4991436;28;20478;-69
2023/12/20 07:32:27;;;;;;;17.47;17.00;;;20.20;56.80;;;;;;4991700;28;20474;-69
2023/12/20 07:34:54;;;;;;;16.50;16.00;;;20.20;56.60;;;;;;4991425;28;20501;-69
2023/12/20 07:37:21;;;;;;;17.60;17.03;;;20.20;57.40;;;;;;4979556;28;20505;-70
2023/12/20 07:39:48;;;;;;;17.50;16.90;;;20.20;56.60;;;;;;4991860;28;20959;-69
2023/12/20 07:42:15;;;;;;;16.13;15.53;;;20.20;56.40;;;;;;4991675;28;20446;-69
2023/12/20 07:44:42;;;;;;;17.07;16.47;;;20.30;56.40;;;;;;4991467;28;20449;-68
2023/12/20 07:47:09;;;;;;;17.80;17.30;;;20.20;56.20;;;;;;4991647;28;20481;-67
2023/12/20 07:49:37;;;;;;;17.47;17.00;;;20.30;56.20;;;;;;4995203;28;20446;-69
2023/12/20 07:52:05;;;;;;;17.17;16.57;;;20.30;55.90;;;;;;4995010;28;20475;-68
2023/12/20 07:54:31;;;;;;;16.27;15.77;;;20.40;56.10;;;;;;4995143;28;20470;-67
2023/12/20 07:56:58;;;;;;;16.40;15.80;;;20.40;55.70;;;;;;4990828;28;20487;-67
2023/12/20 07:59:25;;;;;;;17.37;16.67;;;20.40;55.60;;;;;;4994869;28;21029;-68
2023/12/20 08:01:52;;;;;;;16.93;16.23;;;20.50;55.80;;;;;;4994912;28;20477;-71
2023/12/20 08:04:19;;;;;;;18.07;17.57;;;20.50;55.70;;;;;;4994629;28;20475;-69
2023/12/20 08:06:47;;;;;;;16.73;16.13;;;20.60;55.50;;;;;;4993264;28;20505;-70
2023/12/20 08:09:14;;;;;;;17.60;17.10;;;20.60;54.90;;;;;;4994524;28;21032;-74
2023/12/20 08:11:45;;;;;;;15.90;15.40;;;20.60;54.90;;;;;;4994628;28;20497;-73
2023/12/20 08:14:12;;;;;;;17.30;16.80;;;20.70;54.90;;;;;;4993130;28;20872;-70
2023/12/20 08:16:39;;;;;;;17.03;16.53;;;20.70;55.30;;;;;;4994743;28;20880;-72
2023/12/20 08:19:06;;;;;;;15.30;14.77;;;20.70;55.50;;;;;;4994406;28;20474;-74
2023/12/20 08:21:33;;;;;;;16.70;16.20;;;20.80;55.50;;;;;;4994549;28;20529;-75
2023/12/20 08:24:01;;;;;;;15.73;15.33;;;20.80;55.60;;;;;;4993132;28;20474;-73
2023/12/20 08:26:28;;;;;;;17.60;17.10;;;20.80;54.80;;;;;;4988445;28;20896;-74
2023/12/20 08:28:55;;;;;;;16.00;15.50;;;20.80;54.40;;;;;;4990770;28;20886;-71
2023/12/20 08:31:22;;;;;;;15.93;15.53;;;20.90;54.40;;;;;;4994219;28;20474;-72
2023/12/20 08:33:50;;;;;;;16.70;16.30;;;20.90;54.30;;;;;;4994274;28;20471;-70
2023/12/20 08:36:18;;;;;;;15.77;15.37;;;20.90;54.10;;;;;;4994122;28;20905;-70
2023/12/20 08:38:45;;;;;;;15.90;15.40;;;21.00;54.80;;;;;;4994148;28;20447;-70
2023/12/20 08:41:13;;;;;;;18.30;17.43;;;21.00;54.00;;;;;;4994175;28;20985;-70
2023/12/20 08:43:42;;;;;;;19.40;18.60;;;21.00;54.30;;;;;;4994631;28;20961;-72
2023/12/20 08:46:12;;;;;;;16.97;16.47;;;21.10;54.20;;;;;;4994515;28;20505;-71
2023/12/20 08:48:39;;;;;;;13.70;13.30;;;21.10;54.10;;;;;;4985316;28;20452;-71
2023/12/20 08:51:08;;;;;;;17.03;16.47;;;21.10;54.30;;;;;;4993775;28;20231;-68
2023/12/20 08:53:35;;;;;;;17.87;17.23;;;21.20;53.00;;;;;;4994067;28;20455;-70
2023/12/20 08:56:02;;;;;;;16.57;15.97;;;21.20;53.20;;;;;;4992263;28;21004;-71
2023/12/20 08:58:30;;;;;;;17.10;16.60;;;21.30;53.20;;;;;;4993168;28;20447;-71
2023/12/20 09:00:57;;;;;;;18.47;17.67;;;21.30;53.10;;;;;;4993092;28;20810;-71
2023/12/20 09:03:24;;;;;;;18.13;17.43;;;21.30;53.30;;;;;;4993735;28;20519;-71
2023/12/20 09:05:51;;;;;;;17.10;16.70;;;21.30;53.40;;;;;;4992964;28;20471;-71
2023/12/20 09:08:18;;;;;;;18.97;17.93;;;21.30;53.40;;;;;;4993415;28;20990;-69
2023/12/20 09:10:45;;;;;;;16.53;16.03;;;21.30;53.60;;;;;;4993702;28;20475;-69
2023/12/20 09:13:13;;;;;;;17.83;17.33;;;21.30;53.70;;;;;;4993192;28;20501;-68
2023/12/20 09:15:41;;;;;;;17.47;16.97;;;21.30;53.60;;;;;;4991895;28;20521;-70
2023/12/20 09:18:08;;;;;;;18.00;17.30;;;21.40;53.50;;;;;;4993239;28;20788;-69
2023/12/20 09:20:35;;;;;;;18.40;17.90;;;21.40;53.40;;;;;;4993529;28;20458;-69
2023/12/20 09:23:02;;;;;;;18.50;18.00;;;21.40;53.50;;;;;;4993133;28;20498;-72
2023/12/20 09:25:29;;;;;;;18.03;17.33;;;21.40;53.20;;;;;;4991903;28;20892;-68
2023/12/20 09:27:56;;;;;;;17.17;16.67;;;21.40;53.40;;;;;;4993021;28;20482;-70
2023/12/20 09:30:24;;;;;;;15.57;15.07;;;21.40;53.10;;;;;;4992681;28;20468;-73
2023/12/20 09:32:52;;;;;;;17.70;17.17;;;21.40;53.00;;;;;;4991901;28;20450;-74
2023/12/20 09:35:19;;;;;;;17.87;17.17;;;21.50;52.90;;;;;;4993436;28;20872;-71
2023/12/20 09:37:46;;;;;;;19.33;18.43;;;21.50;52.70;;;;;;4996530;28;20506;-70
2023/12/20 09:40:14;;;;;;;18.60;18.00;;;21.50;52.50;;;;;;4993783;28;20447;-70
2023/12/20 09:42:50;;;;;;;18.77;17.97;;;21.50;52.60;;;;;;4993356;28;20475;-69
2023/12/20 09:45:20;;;;;;;19.47;18.87;;;21.50;52.80;;;;;;4992283;28;20458;-69
2023/12/20 09:47:47;;;;;;;18.80;18.30;;;21.60;53.10;;;;;;4992896;28;20485;-69
2023/12/20 09:50:17;;;;;;;19.93;19.23;;;21.60;53.20;;;;;;4992705;28;20482;-68
2023/12/20 09:52:46;;;;;;;19.50;18.70;;;21.60;53.00;;;;;;4992782;28;20479;-69
2023/12/20 09:55:14;;;;;;;18.13;17.53;;;21.60;54.40;;;;;;4992182;28;20498;-68
2023/12/20 09:57:41;;;;;;;18.90;18.30;;;21.70;53.50;;;;;;4992738;28;20479;-70
2023/12/20 10:00:09;;;;;;;19.10;18.47;;;21.70;53.40;;;;;;4992521;28;20467;-69
2023/12/20 10:02:43;;;;;;;19.33;18.77;;;21.70;54.10;;;;;;4992495;28;20490;-69
2023/12/20 10:05:18;;;;;;;18.90;18.20;;;21.70;53.30;;;;;;4985770;28;21173;-70
2023/12/20 10:07:46;;;;;;;18.45;17.85;;;21.70;53.70;;;;;;4992404;28;20448;-71
2023/12/20 10:10:14;;;;;;;18.70;18.10;;;21.70;53.40;;;;;;4992190;28;20306;-67
2023/12/20 10:12:41;;;;;;;19.47;18.87;;;21.70;52.60;;;;;;4992668;28;20446;-71
2023/12/20 10:15:10;;;;;;;20.07;19.40;;;21.70;52.60;;;;;;4991099;28;20494;-70
2023/12/20 10:17:37;;;;;;;19.43;18.53;;;21.80;52.80;;;;;;4992790;28;20504;-68
2023/12/20 10:20:09;;;;;;;18.90;18.30;;;21.80;53.10;;;;;;4992607;28;20470;-69
2023/12/20 10:22:39;;;;;;;18.50;18.00;;;21.80;52.80;;;;;;4992356;28;20474;-71
2023/12/20 10:25:07;;;;;;;18.23;17.60;;;21.80;52.60;;;;;;4992085;28;20565;-68
2023/12/20 10:27:34;;;;;;;18.30;17.80;;;21.80;52.70;;;;;;4992315;28;20481;-67
2023/12/20 10:30:00;;;;;;;19.43;18.83;;;21.80;52.90;;;;;;4988874;28;20483;-71
2023/12/20 10:32:28;;;;;;;21.03;20.43;;;21.80;52.80;;;;;;4989028;28;20447;-68
2023/12/20 10:34:56;;;;;;;20.10;19.30;;;21.80;52.60;;;;;;4992290;28;20466;-69
2023/12/20 10:37:23;;;;;;;18.33;17.73;;;21.90;52.40;;;;;;4992136;28;20456;-69
2023/12/20 10:39:56;;;;;;;20.40;19.70;;;21.90;52.30;;;;;;4992118;28;20473;-68
2023/12/20 10:42:29;;;;;;;18.45;17.85;;;21.90;52.10;;;;;;4984883;28;20468;-68
2023/12/20 10:44:56;;;;;;;19.07;18.47;;;21.90;52.80;;;;;;4992032;28;20739;-69
2023/12/20 10:47:25;;;;;;;19.60;18.90;;;21.90;52.40;;;;;;4983894;28;20458;-69
2023/12/20 10:49:53;;;;;;;19.50;19.00;;;21.90;52.20;;;;;;4992035;28;20517;-69
2023/12/20 10:52:23;;;;;;;18.87;18.17;;;22.00;52.40;;;;;;4989993;28;20491;-69
2023/12/20 10:54:52;;;;;;;20.13;19.43;;;22.00;52.30;;;;;;4992367;28;20498;-69
2023/12/20 10:57:20;;;;;;;19.07;18.37;;;22.00;52.20;;;;;;4991681;28;21188;-69
2023/12/20 10:59:49;;;;;;;20.50;19.90;;;22.00;52.00;;;;;;4991966;28;20443;-69
2023/12/20 11:02:16;;;;;;;19.40;18.80;;;22.00;51.90;;;;;;4989775;28;20483;-69
2023/12/20 11:04:51;;;;;;;19.57;18.87;;;22.00;51.80;;;;;;4992120;28;21152;-69
2023/12/20 11:07:24;;;;;;;19.30;18.80;;;22.00;52.00;;;;;;4992283;28;20509;-68
2023/12/20 11:10:01;;;;;;;17.60;17.10;;;22.10;53.10;;;;;;4992266;28;20920;-68
2023/12/20 11:12:38;;;;;;;18.70;17.90;;;22.00;52.40;;;;;;4985450;28;20529;-68
2023/12/20 11:15:06;;;;;;;19.30;18.63;;;22.10;52.40;;;;;;4991921;28;20505;-68
2023/12/20 11:17:33;;;;;;;18.57;18.07;;;22.10;52.30;;;;;;4990806;28;20486;-70
2023/12/20 11:20:14;;;;;;;19.33;18.50;;;22.10;52.20;;;;;;4991184;28;20471;-70
2023/12/20 11:22:52;;;;;;;18.47;17.97;;;22.10;52.20;;;;;;4992926;28;20481;-65
2023/12/20 11:25:21;;;;;;;19.50;18.90;;;22.10;52.10;;;;;;4991129;28;20537;-67
2023/12/20 11:28:08;;;;;;;17.90;17.40;;;22.10;51.90;;;;;;4994125;28;20951;-67
2023/12/20 11:30:42;;;;;;;17.60;17.10;;;22.10;51.90;;;;;;4988818;28;20862;-66
2023/12/20 11:33:09;;;;;;;19.03;18.53;;;22.10;51.80;;;;;;4992623;28;20438;-70
2023/12/20 11:35:36;;;;;;;25.90;25.10;;;22.10;51.90;;;;;;4993381;28;20818;-67
2023/12/20 11:38:04;;;;;;;24.43;23.73;;;22.10;51.60;;;;;;4993947;28;20458;-74
2023/12/20 11:40:35;;;;;;;27.70;26.70;;;22.20;51.00;;;;;;4990022;28;20447;-71
2023/12/20 11:43:03;;;;;;;24.30;23.60;;;22.20;51.40;;;;;;4995257;28;20481;-73
2023/12/20 11:45:30;;;;;;;20.50;19.80;;;22.20;51.50;;;;;;4994147;28;20470;-65
2023/12/20 11:47:58;;;;;;;25.80;25.00;;;22.20;51.40;;;;;;4994957;28;20200;-67
2023/12/20 11:50:25;;;;;;;24.77;24.07;;;22.20;51.20;;;;;;4994683;28;20474;-67
2023/12/20 11:52:54;;;;;;;23.57;22.87;;;22.30;51.00;;;;;;4994955;28;20470;-66
2023/12/20 11:55:21;;;;;;;24.27;23.58;;;22.30;50.90;;;;;;4994996;28;20832;-70
2023/12/20 11:57:49;;;;;;;23.87;23.17;;;22.30;51.40;;;;;;4995078;28;20227;-71
2023/12/20 12:00:17;;;;;;;27.67;26.77;;;22.30;51.20;;;;;;4995107;28;20855;-70
2023/12/20 12:02:44;;;;;;;25.37;24.67;;;22.30;51.10;;;;;;4992102;28;20463;-69
2023/12/20 12:05:11;;;;;;;24.47;23.73;;;22.30;51.00;;;;;;4995154;28;20477;-69
2023/12/20 12:07:38;;;;;;;25.47;24.57;;;22.30;51.00;;;;;;4994973;28;20486;-69
2023/12/20 12:10:05;;;;;;;24.93;24.10;;;22.30;51.10;;;;;;4994724;28;20499;-69
2023/12/20 12:12:33;;;;;;;23.80;23.10;;;22.30;52.10;;;;;;4990685;28;20474;-70
2023/12/20 12:15:02;;;;;;;23.77;23.07;;;22.30;51.00;;;;;;4995572;28;20537;-69
2023/12/20 12:17:29;;;;;;;25.07;24.37;;;22.30;51.00;;;;;;4987227;28;20466;-70
2023/12/20 12:20:05;;;;;;;26.03;25.23;;;22.30;51.10;;;;;;4992056;28;20467;-69
2023/12/20 12:22:32;;;;;;;23.17;22.37;;;22.30;50.90;;;;;;4987231;28;20445;-70
2023/12/20 12:27:25;;;;;;;24.20;23.30;;;22.40;51.30;;;;;;5035067;23;21014;-70
2023/12/20 12:30:04;;;;;;;23.03;22.30;;;22.30;51.00;;;;;;5007264;28;20305;-71
2023/12/20 12:32:32;;;;;;;23.33;22.63;;;22.40;50.90;;;;;;5006299;28;20804;-70